Honeywell Corners, New York
Current Conditions -  °F | °C
As of 10:35 PM on Saturday 24 Jan 2015 (Local Time) from KNY0 Reporting Station
Overcast Overcast  
Wind Chill: 14°   Ceiling: 800
Heat Index: 26°   Visibility: 7mi
Dew Point: 23°   Wind: 14mph
Humidity: 90%   Direction: 280°W
Pressure: 29.38"   Gusts: 22mph
Location:  43.0744°N, 74.1473°W
Report Text: KNY0 250335Z AUTO 28012G19KT 7SM OVC008 M03/M05 A2938 RMK AO2 T10331048
Loading
Personal Weather Stations






























Interactive Weather Map New forecast layout! Learn more

10-Day Weather Forecast

Advertisements
Track Severe Weather on mobile